METAR Data
IDs: Format: Raw Decoded Include TAF

Data at: 2058 UTC 18 Sep 2018

KGZN 182020Z AUTO 17013KT 10SM CLR 32/18 A2998 RMK AO2
KGZN 182000Z AUTO 16008KT 10SM FEW055 32/18 A2998 RMK AO2
KGZN 181940Z AUTO 20007G15KT 10SM FEW060 32/18 A2999 RMK AO2
KGZN 181920Z AUTO 19009G17KT 10SM CLR 32/18 A3000 RMK AO2
KGZN 181900Z AUTO VRB05G14KT 10SM CLR 32/18 A3001 RMK AO2
KGZN 181840Z AUTO 17010G16KT 10SM CLR 32/18 A3002 RMK AO2
KGZN 181820Z AUTO 19008G15KT 160V220 10SM CLR 31/19 A3003 RMK AO2
KGZN 181800Z AUTO 18008G13KT 10SM CLR 31/19 A3004 RMK AO2
KGZN 181740Z AUTO 22012G17KT 10SM CLR 31/19 A3004 RMK AO2
KGZN 181720Z AUTO 18011KT 10SM CLR 31/19 A3005 RMK AO2
KGZN 181700Z AUTO 19009G15KT 10SM CLR 30/20 A3006 RMK AO2
KGZN 181640Z AUTO 19009KT 10SM CLR 30/20 A3006 RMK AO2
KGZN 181620Z AUTO 18009G16KT 10SM CLR 29/20 A3007 RMK AO2
KGZN 181600Z AUTO 20011KT 10SM CLR 29/20 A3007 RMK AO2
KGZN 181540Z AUTO 20009G16KT 10SM CLR 28/21 A3007 RMK AO2
KGZN 181520Z AUTO 19010KT 10SM CLR 28/21 A3006 RMK AO2
KGZN 181500Z AUTO 21012KT 10SM CLR 27/21 A3006 RMK AO2
KGZN 181440Z AUTO 21012KT 10SM CLR 27/21 A3006 RMK AO2
KGZN 181420Z AUTO 20011KT 10SM CLR 26/22 A3006 RMK AO2
KGZN 181400Z AUTO 20009G15KT 10SM CLR 25/22 A3007 RMK AO2
KGZN 181340Z AUTO 20006KT 10SM CLR 24/21 A3006 RMK AO2
KGZN 181320Z AUTO 20006KT 10SM CLR 23/21 A3006 RMK AO2
KGZN 181300Z AUTO 19006KT 10SM SCT110 22/20 A3006 RMK AO2
KGZN 181240Z AUTO 17006KT 10SM BKN110 22/20 A3006 RMK AO2
KGZN 181220Z AUTO 17006KT 10SM OVC110 22/20 A3005 RMK AO2
KGZN 181200Z AUTO 19006KT 10SM FEW070 OVC100 22/20 A3005 RMK AO2
KGZN 181140Z AUTO 18006KT 10SM BKN065 BKN075 OVC110 22/20 A3004 RMK AO2
KGZN 181120Z AUTO 19004KT 10SM SCT060 BKN110 21/20 A3004 RMK AO2
KGZN 181100Z AUTO 19004KT 10SM BKN110 22/20 A3004 RMK AO2
KGZN 181040Z AUTO 21005KT 10SM OVC100 22/20 A3003 RMK AO2
KGZN 181020Z AUTO 19003KT 10SM BKN100 22/20 A3003 RMK AO2
KGZN 181000Z AUTO 20004KT 10SM BKN100 22/20 A3003 RMK AO2
KGZN 180940Z AUTO 21004KT 10SM OVC100 22/20 A3003 RMK AO2
KGZN 180920Z AUTO 19003KT 10SM OVC100 22/20 A3003 RMK AO2
KGZN 180900Z AUTO 18004KT 10SM OVC095 22/20 A3003 RMK AO2
KGZN 180840Z AUTO 19004KT 10SM OVC100 22/20 A3003 RMK AO2
KGZN 180820Z AUTO 00000KT 10SM OVC100 22/20 A3003 RMK AO2
KGZN 180800Z AUTO 18004KT 10SM BKN100 21/20 A3003 RMK AO2
KGZN 180740Z AUTO 18005KT 10SM CLR 22/20 A3003 RMK AO2
KGZN 180720Z AUTO 18004KT 10SM CLR 22/20 A3003 RMK AO2
KGZN 180700Z AUTO 18006KT 10SM CLR 22/20 A3003 RMK AO2
KGZN 180640Z AUTO 18005KT 10SM CLR 23/20 A3003 RMK AO2
KGZN 180620Z AUTO 19004KT 10SM CLR 23/20 A3003 RMK AO2
KGZN 180600Z AUTO 19005KT 10SM CLR 23/20 A3003 RMK AO2
KGZN 180540Z AUTO 19004KT 10SM CLR 23/20 A3003 RMK AO2
KGZN 180520Z AUTO 19004KT 10SM CLR 23/20 A3003 RMK AO2
KGZN 180500Z AUTO 20004KT 10SM CLR 23/20 A3003 RMK AO2
KGZN 180440Z AUTO 20004KT 10SM CLR 23/20 A3003 RMK AO2
KGZN 180420Z AUTO 20004KT 10SM CLR 24/20 A3003 RMK AO2
KGZN 180400Z AUTO 19004KT 10SM CLR 24/20 A3003 RMK AO2
KGZN 180340Z AUTO 20004KT 10SM CLR 24/20 A3003 RMK AO2
KGZN 180320Z AUTO 19004KT 10SM CLR 24/20 A3003 RMK AO2
KGZN 180300Z AUTO 18005KT 10SM CLR 24/20 A3002 RMK AO2
KGZN 180240Z AUTO 19004KT 10SM CLR 25/20 A3002 RMK AO2
KGZN 180220Z AUTO 19004KT 10SM CLR 25/20 A3001 RMK AO2
KGZN 180200Z AUTO 18005KT 10SM CLR 25/20 A3001 RMK AO2
KGZN 180140Z AUTO 18007KT 10SM CLR 25/20 A3000 RMK AO2
KGZN 180120Z AUTO 18006KT 10SM CLR 26/20 A2999 RMK AO2
KGZN 180100Z AUTO 18007KT 10SM CLR 26/20 A2999 RMK AO2
KGZN 180040Z AUTO 16005KT 10SM CLR 27/20 A2998 RMK AO2
KGZN 180020Z AUTO 16005KT 10SM CLR 28/20 A2998 RMK AO2
KGZN 180000Z AUTO 16007KT 10SM CLR 29/19 A2997 RMK AO2
KGZN 172340Z AUTO 17007KT 10SM FEW050 30/19 A2997 RMK AO2
KGZN 172320Z AUTO 14008KT 10SM FEW050 30/19 A2997 RMK AO2
KGZN 172300Z AUTO 15009KT 10SM FEW050 30/18 A2997 RMK AO2
KGZN 172240Z AUTO 17007G12KT 10SM FEW050 30/18 A2997 RMK AO2
KGZN 172220Z AUTO 15006KT 10SM FEW050 31/18 A2998 RMK AO2
KGZN 172200Z AUTO 18006G13KT 10SM CLR 31/18 A2998 RMK AO2
KGZN 172140Z AUTO 17009KT 10SM CLR 31/18 A2998 RMK AO2
KGZN 172120Z AUTO 19008G14KT 10SM FEW050 FEW060 30/18 A2999 RMK AO2
KGZN 172100Z AUTO 14010KT 10SM FEW050 FEW065 30/19 A2999 RMK AO2
KGZN 172040Z AUTO 16010KT 10SM SCT050 SCT055 30/19 A3000 RMK AO2
KGZN 172020Z AUTO 17007G17KT 10SM FEW047 SCT055 30/19 A3001 RMK AO2
KGZN 172000Z AUTO 21009G14KT 160V240 10SM SCT047 31/19 A3001 RMK AO2
KGZN 171940Z AUTO 20010KT 10SM FEW046 31/19 A3002 RMK AO2
KGZN 171920Z AUTO 20009G15KT 10SM CLR 31/19 A3003 RMK AO2
KGZN 171900Z AUTO 20008G14KT 160V220 10SM FEW043 30/19 A3003 RMK AO2
KGZN 171840Z AUTO 21009KT 10SM CLR 30/20 A3004 RMK AO2
KGZN 171820Z AUTO 20009G15KT 10SM FEW038 30/20 A3005 RMK AO2
KGZN 171800Z AUTO 21008KT 10SM FEW036 30/20 A3005 RMK AO2
KGZN 171740Z AUTO 21011G18KT 10SM CLR 29/20 A3006 RMK AO2
KGZN 171720Z AUTO 18010G15KT 10SM CLR 29/21 A3006 RMK AO2
KGZN 171700Z AUTO 18008G13KT 10SM CLR 29/20 A3007 RMK AO2
KGZN 171640Z AUTO 21009KT 10SM CLR 28/20 A3007 RMK AO2
KGZN 171620Z AUTO 18009G14KT 160V220 10SM CLR 28/20 A3007 RMK AO2
KGZN 171600Z AUTO 17009KT 10SM CLR 27/20 A3007 RMK AO2
KGZN 171540Z AUTO 20008KT 10SM CLR 27/20 A3007 RMK AO2
KGZN 171520Z AUTO 17008KT 10SM CLR 26/20 A3007 RMK AO2
KGZN 171500Z AUTO 7.64000008KT 10SM CLR 25/20 A3006 RMK AO2
KGZN 171440Z AUTO 19007KT 10SM CLR 25/21 A3006 RMK AO2
KGZN 171420Z AUTO 19007KT 10SM CLR 24/21 A3006 RMK AO2
KGZN 171400Z AUTO 21006KT 10SM CLR 23/21 A3005 RMK AO2
KGZN 171340Z AUTO 20006KT 10SM CLR 22/21 A3005 RMK AO2
KGZN 171320Z AUTO 17004KT 9SM CLR 21/21 A3004 RMK AO2
KGZN 171300Z AUTO 17004KT 7SM CLR 21/20 A3003 RMK AO2
KGZN 171240Z AUTO 16003KT 8SM CLR 20/20 A3003 RMK AO2
KGZN 171220Z AUTO 18005KT 9SM CLR 21/20 A3002 RMK AO2
KGZN 171200Z AUTO 19004KT 10SM FEW032 20/20 A3002 RMK AO2
KGZN 171140Z AUTO 19004KT 10SM FEW034 21/20 A3002 RMK AO2
KGZN 171120Z AUTO 17005KT 10SM FEW036 20/20 A3001 RMK AO2
KGZN 171100Z AUTO 17005KT 10SM FEW035 21/20 A3001 RMK AO2
KGZN 171040Z AUTO 18004KT 10SM CLR 21/20 A3001 RMK AO2
KGZN 171020Z AUTO 20004KT 10SM CLR 21/20 A3001 RMK AO2
KGZN 171000Z AUTO 19004KT 10SM CLR 21/20 A3001 RMK AO2
KGZN 170940Z AUTO 19004KT 10SM CLR 21/20 A3000 RMK AO2
KGZN 170920Z AUTO 00000KT 10SM CLR 21/20 A3000 RMK AO2
KGZN 170900Z AUTO 20003KT 10SM CLR 21/21 A3000 RMK AO2